createdAt,value
2024-01-04T00:04:06.354Z,7.30
2024-01-04T00:09:08.334Z,7.30
2024-01-04T00:14:10.438Z,7.30
2024-01-04T00:19:12.585Z,7.30
2024-01-04T00:24:14.840Z,7.30
2024-01-04T00:29:17.799Z,7.20
2024-01-04T00:34:19.897Z,7.20
2024-01-04T00:39:25.377Z,7.30
2024-01-04T00:44:27.340Z,7.30
2024-01-04T00:49:32.595Z,7.20
2024-01-04T00:54:34.895Z,7.20
2024-01-04T00:59:36.922Z,7.20
2024-01-04T01:04:39.018Z,7.20
2024-01-04T01:09:40.969Z,7.20
2024-01-04T01:14:43.045Z,7.10
2024-01-04T01:19:45.091Z,7.10
2024-01-04T01:24:47.167Z,7.10
2024-01-04T01:29:49.150Z,7.10
2024-01-04T01:34:51.179Z,7.20
2024-01-04T01:39:53.182Z,7.20
2024-01-04T01:44:55.290Z,7.10
2024-01-04T01:49:58.678Z,7.10
2024-01-04T01:55:00.876Z,7.10
2024-01-04T02:00:03.730Z,7.00
2024-01-04T02:05:15.123Z,7.00
2024-01-04T02:10:17.318Z,6.90
2024-01-04T02:15:19.388Z,6.90
2024-01-04T02:20:21.597Z,6.80
2024-01-04T02:25:23.611Z,6.70
2024-01-04T02:30:25.698Z,6.60
2024-01-04T02:35:27.944Z,6.60
2024-01-04T02:40:31.520Z,6.60
2024-01-04T02:45:33.501Z,6.60
2024-01-04T02:50:35.503Z,6.50
2024-01-04T02:55:38.689Z,6.50
2024-01-04T03:00:40.744Z,6.50
2024-01-04T03:05:42.860Z,6.50
2024-01-04T03:10:44.889Z,6.50
2024-01-04T03:15:46.887Z,6.50
2024-01-04T03:20:48.946Z,6.50
2024-01-04T03:25:50.943Z,6.50
2024-01-04T03:30:52.985Z,6.40
2024-01-04T03:35:55.175Z,6.40
2024-01-04T03:40:57.216Z,6.40
2024-01-04T03:45:59.286Z,6.50
2024-01-04T03:51:01.982Z,6.50
2024-01-04T03:56:05.418Z,6.40
2024-01-04T04:01:07.393Z,6.50
2024-01-04T04:06:09.645Z,6.50
2024-01-04T04:11:20.631Z,6.50
2024-01-04T04:16:22.753Z,6.40
2024-01-04T04:21:25.627Z,6.40
2024-01-04T04:26:27.612Z,6.40
2024-01-04T04:31:29.620Z,6.40
2024-01-04T04:36:31.924Z,6.40
2024-01-04T04:41:34.067Z,6.40
2024-01-04T04:46:36.190Z,6.40
2024-01-04T04:51:38.228Z,6.30
2024-01-04T04:56:40.317Z,6.40
2024-01-04T05:01:44.618Z,6.30
2024-01-04T05:06:46.717Z,6.30
2024-01-04T05:11:48.964Z,6.30
2024-01-04T05:16:51.451Z,6.30
2024-01-04T05:21:53.728Z,6.30
2024-01-04T05:26:55.842Z,6.30
2024-01-04T05:31:57.977Z,6.30
2024-01-04T05:37:00.371Z,6.30
2024-01-04T05:42:02.540Z,6.30
2024-01-04T05:47:04.728Z,6.20
2024-01-04T05:52:07.683Z,6.20
2024-01-04T05:57:09.638Z,6.20
2024-01-04T06:02:11.615Z,6.20
2024-01-04T06:07:13.601Z,6.10
2024-01-04T06:12:15.689Z,6.10
2024-01-04T06:17:17.782Z,6.10
2024-01-04T06:22:19.720Z,6.10
2024-01-04T06:27:21.761Z,6.10
2024-01-04T06:32:23.788Z,6.00
2024-01-04T06:37:25.786Z,6.00
2024-01-04T06:42:27.768Z,6.00
2024-01-04T06:47:29.838Z,6.00
2024-01-04T06:52:31.780Z,5.90
2024-01-04T06:57:33.744Z,5.90
2024-01-04T07:02:36.840Z,5.80
2024-01-04T07:07:39.641Z,5.80
2024-01-04T07:12:44.248Z,5.80
2024-01-04T07:17:46.530Z,5.80
2024-01-04T07:22:49.319Z,5.80
2024-01-04T07:27:51.414Z,5.80
2024-01-04T07:32:53.652Z,5.80
2024-01-04T07:37:55.967Z,5.80
2024-01-04T07:42:57.892Z,5.80
2024-01-04T07:48:00.376Z,5.90
2024-01-04T07:53:02.461Z,5.90
2024-01-04T07:58:04.523Z,5.90
2024-01-04T08:03:06.680Z,5.90
2024-01-04T08:08:08.759Z,5.90
2024-01-04T08:13:10.766Z,5.90
2024-01-04T08:18:13.003Z,5.80
2024-01-04T08:23:15.104Z,5.90
2024-01-04T08:28:17.094Z,5.90
2024-01-04T08:33:19.595Z,6.00
2024-01-04T08:38:21.615Z,5.90
2024-01-04T08:43:23.550Z,5.90
2024-01-04T08:48:25.711Z,5.90
2024-01-04T08:53:27.851Z,5.90
2024-01-04T08:58:29.814Z,6.00
2024-01-04T09:03:33.076Z,5.90
2024-01-04T09:08:36.732Z,5.90
2024-01-04T09:13:38.945Z,5.90
2024-01-04T09:18:40.987Z,6.00
2024-01-04T09:23:43.065Z,6.00
2024-01-04T09:28:45.229Z,6.00
2024-01-04T09:33:47.334Z,6.00
2024-01-04T09:38:49.408Z,6.00
2024-01-04T09:43:55.948Z,6.00
2024-01-04T09:49:02.602Z,6.00
2024-01-04T09:54:10.283Z,6.00
2024-01-04T09:59:12.452Z,6.00
2024-01-04T10:04:17.908Z,6.00
2024-01-04T10:09:30.028Z,6.00
2024-01-04T10:14:32.859Z,6.00
2024-01-04T10:19:35.248Z,6.00
2024-01-04T10:24:39.373Z,6.00
2024-01-04T10:29:44.465Z,6.00
2024-01-04T10:34:46.542Z,6.00
2024-01-04T10:39:59.521Z,6.10
2024-01-04T10:45:01.648Z,6.10
2024-01-04T10:50:05.270Z,6.10
2024-01-04T10:55:08.977Z,6.00
2024-01-04T11:00:12.926Z,6.00
2024-01-04T11:05:17.069Z,6.10
2024-01-04T11:10:20.124Z,6.10
2024-01-04T11:15:22.233Z,6.10
2024-01-04T11:20:55.364Z,6.10
2024-01-04T11:26:31.146Z,6.10
2024-01-04T11:31:40.049Z,6.10
2024-01-04T11:36:42.248Z,6.10
2024-01-04T11:41:44.204Z,6.10
2024-01-04T11:46:46.278Z,6.20
2024-01-04T11:51:49.239Z,6.20
2024-01-04T11:56:51.434Z,6.10
2024-01-04T12:01:53.458Z,6.10
2024-01-04T12:06:57.877Z,6.10
2024-01-04T12:11:59.889Z,6.10
2024-01-04T12:17:01.935Z,6.10
2024-01-04T12:22:04.357Z,6.00
2024-01-04T12:27:07.136Z,6.10
2024-01-04T12:32:11.276Z,6.10
2024-01-04T12:37:19.420Z,6.00
2024-01-04T12:42:22.569Z,6.10
2024-01-04T12:47:26.277Z,6.10
2024-01-04T12:52:28.293Z,6.10
2024-01-04T12:57:30.482Z,6.10
2024-01-04T13:02:32.508Z,6.10
2024-01-04T13:07:35.420Z,6.10
2024-01-04T13:12:40.732Z,6.10
2024-01-04T13:17:42.758Z,6.10
2024-01-04T13:22:45.732Z,6.20
2024-01-04T13:27:47.776Z,6.20
2024-01-04T13:32:49.919Z,6.20
2024-01-04T13:37:52.224Z,6.30
2024-01-04T13:42:54.976Z,6.30
2024-01-04T13:47:57.472Z,6.30
2024-01-04T13:52:59.623Z,6.30
2024-01-04T13:58:01.604Z,6.30
2024-01-04T14:03:04.273Z,6.20
2024-01-04T14:08:06.763Z,6.20
2024-01-04T14:13:09.200Z,6.10
2024-01-04T14:18:11.400Z,6.20
2024-01-04T14:23:14.050Z,6.10
2024-01-04T14:28:17.054Z,6.10
2024-01-04T14:33:25.137Z,6.10
2024-01-04T14:38:34.790Z,6.10
2024-01-04T14:43:36.809Z,6.10
2024-01-04T14:48:39.172Z,6.10
2024-01-04T14:53:42.071Z,6.10
2024-01-04T14:58:44.077Z,6.10
2024-01-04T15:03:46.137Z,6.10
2024-01-04T15:08:50.076Z,6.10
2024-01-04T15:13:52.334Z,6.10
2024-01-04T15:18:55.387Z,6.10
2024-01-04T15:23:58.335Z,6.00
2024-01-04T15:29:00.376Z,6.00
2024-01-04T15:34:02.420Z,6.00
2024-01-04T15:39:04.556Z,5.90
2024-01-04T15:44:10.073Z,5.90
2024-01-04T15:49:12.279Z,5.90
2024-01-04T15:54:14.548Z,5.80
2024-01-04T15:59:16.643Z,5.80
2024-01-04T16:04:18.708Z,5.80
2024-01-04T16:09:20.923Z,5.80
2024-01-04T16:14:23.103Z,5.80
2024-01-04T16:41:59.071Z,5.70
2024-01-04T16:47:05.171Z,5.60
2024-01-04T16:52:07.734Z,5.60
2024-01-04T16:57:09.839Z,5.60
2024-01-04T17:02:11.885Z,5.60
2024-01-04T17:07:14.223Z,5.60
2024-01-04T17:12:16.221Z,5.50
2024-01-04T17:17:18.175Z,5.50
2024-01-04T17:22:20.146Z,5.50
2024-01-04T17:27:22.174Z,5.50
2024-01-04T17:32:24.501Z,5.40
2024-01-04T17:37:34.795Z,5.40
2024-01-04T17:42:37.789Z,5.10
2024-01-04T17:47:42.937Z,5.00
2024-01-04T17:52:46.060Z,4.90
2024-01-04T17:57:48.037Z,4.70
2024-01-04T18:02:50.104Z,4.40
2024-01-04T18:07:52.164Z,4.30
2024-01-04T18:12:54.281Z,4.00
2024-01-04T18:17:56.553Z,3.80
2024-01-04T18:22:58.805Z,3.80
2024-01-04T18:28:00.979Z,3.70
2024-01-04T18:33:03.142Z,3.70
2024-01-04T18:38:05.181Z,3.70
2024-01-04T18:43:07.209Z,3.70
2024-01-04T18:48:09.431Z,3.70
2024-01-04T18:53:11.618Z,3.80
2024-01-04T18:58:13.695Z,3.80
2024-01-04T19:03:15.713Z,3.80
2024-01-04T19:08:17.849Z,3.80
2024-01-04T19:13:19.898Z,3.80
2024-01-04T19:18:22.298Z,3.70
2024-01-04T19:23:24.457Z,3.70
2024-01-04T19:28:26.525Z,3.60
2024-01-04T19:38:30.627Z,3.30
2024-01-04T19:43:32.628Z,3.40
2024-01-04T19:48:35.456Z,3.50
2024-01-04T19:53:37.550Z,3.50
2024-01-04T19:58:42.268Z,3.50
2024-01-04T20:03:45.627Z,3.50
2024-01-04T20:08:48.443Z,3.50
2024-01-04T20:13:52.320Z,3.60
2024-01-04T20:18:54.482Z,3.60
2024-01-04T20:23:56.574Z,3.70
2024-01-04T20:29:02.343Z,3.70
2024-01-04T20:34:05.642Z,3.80
2024-01-04T20:39:07.814Z,3.90
2024-01-04T20:44:09.986Z,3.90
2024-01-04T20:49:12.119Z,3.90
2024-01-04T20:54:14.259Z,3.90
2024-01-04T20:59:17.166Z,3.90
2024-01-04T21:04:20.032Z,3.80
2024-01-04T21:09:22.117Z,3.70
2024-01-04T21:14:24.146Z,3.60
2024-01-04T21:19:27.323Z,3.50
2024-01-04T21:24:29.482Z,3.40
2024-01-04T21:29:32.292Z,3.20
2024-01-04T21:34:34.496Z,3.00
2024-01-04T21:39:37.361Z,3.00
2024-01-04T21:44:40.949Z,3.00
2024-01-04T21:49:43.037Z,3.10
2024-01-04T21:54:48.184Z,3.10
2024-01-04T21:59:50.455Z,3.00
2024-01-04T22:04:52.488Z,3.00
2024-01-04T22:09:54.816Z,3.00
2024-01-04T22:14:56.813Z,2.90
2024-01-04T22:19:58.920Z,3.00
2024-01-04T22:25:02.548Z,3.00
2024-01-04T22:30:05.183Z,3.20
2024-01-04T22:35:07.706Z,3.10
2024-01-04T22:40:10.559Z,3.20
2024-01-04T22:45:12.653Z,3.20
2024-01-04T22:50:16.858Z,3.20
2024-01-04T22:55:19.105Z,3.20
2024-01-04T23:00:22.107Z,3.20
2024-01-04T23:05:25.647Z,3.20
2024-01-04T23:10:27.693Z,3.00
2024-01-04T23:15:29.797Z,3.00
2024-01-04T23:20:31.764Z,3.00
2024-01-04T23:25:33.969Z,3.00
2024-01-04T23:30:36.161Z,3.10
2024-01-04T23:35:39.674Z,3.20
2024-01-04T23:40:41.707Z,3.20
2024-01-04T23:45:43.708Z,3.30
2024-01-04T23:50:45.707Z,3.30
2024-01-04T23:55:47.711Z,3.40
